Time;durP1;ratioP1;P1;durP2;ratioP2;P2;SDS_P1;SDS_P2;PMS_P1;PMS_P2;Temp;Humidity;BMP_temperature;BMP_pressure;BME280_temperature;BME280_humidity;BME280_pressure;Samples;Min_cycle;Max_cycle;Signal;HPM_P1;HPM_P2
2022/12/19 00:02:01;;;;;;;53.17;21.83;;;-1.50;99.90;;;;;;4938755;29;20107;-74
2022/12/19 00:04:27;;;;;;;47.00;21.20;;;-1.50;99.90;;;;;;4938751;29;20020;-73
2022/12/19 00:06:57;;;;;;;41.40;20.05;;;-0.10;99.90;;;;;;4938366;29;20520;-74
2022/12/19 00:09:22;;;;;;;44.63;20.42;;;-1.30;99.90;;;;;;4938444;29;20051;-73
2022/12/19 00:11:48;;;;;;;47.30;19.63;;;-1.20;99.90;;;;;;4938496;29;20050;-74
2022/12/19 00:14:14;;;;;;;44.15;20.50;;;-1.50;99.90;;;;;;4938510;29;20031;-74
2022/12/19 00:16:39;;;;;;;46.67;20.65;;;-1.50;99.90;;;;;;4921283;29;20059;-74
2022/12/19 00:19:07;;;;;;;43.80;21.23;;;-0.80;99.90;;;;;;4921144;29;20028;-74
2022/12/19 00:21:34;;;;;;;47.87;19.53;;;-1.40;99.90;;;;;;4920848;29;20090;-74
2022/12/19 00:23:59;;;;;;;40.15;18.45;;;-1.20;99.90;;;;;;4938272;29;20266;-74
2022/12/19 00:26:28;;;;;;;42.88;19.60;;;-0.90;99.90;;;;;;4937662;29;20106;-74
2022/12/19 00:28:59;;;;;;;45.65;20.70;;;-1.40;99.90;;;;;;4920907;29;20037;-74
2022/12/19 00:31:26;;;;;;;47.30;19.02;;;-1.60;99.90;;;;;;4921039;29;20507;-74
2022/12/19 00:33:52;;;;;;;45.40;20.30;;;-1.40;99.90;;;;;;4937843;29;20062;-73
2022/12/19 00:36:22;;;;;;;41.80;19.65;;;-1.50;99.90;;;;;;4921136;29;20540;-74
2022/12/19 00:38:48;;;;;;;44.05;19.52;;;-0.40;99.90;;;;;;4937934;29;20088;-74
2022/12/19 00:41:13;;;;;;;43.47;19.02;;;-1.30;99.90;;;;;;4920757;29;20024;-74
2022/12/19 00:43:40;;;;;;;48.67;20.63;;;-1.60;99.90;;;;;;4938127;29;20054;-74
2022/12/19 00:46:08;;;;;;;40.72;19.30;;;-1.40;99.90;;;;;;4919911;29;20031;-74
2022/12/19 00:48:34;;;;;;;30.88;14.77;;;-0.20;99.90;;;;;;4937305;29;20024;-74
2022/12/19 00:51:05;;;;;;;41.10;18.77;;;-0.30;99.90;;;;;;4937455;29;20035;-74
2022/12/19 00:53:30;;;;;;;40.45;18.67;;;-1.60;99.90;;;;;;4937613;29;20057;-73
2022/12/19 00:56:00;;;;;;;43.90;19.70;;;-1.60;99.90;;;;;;4921242;29;20038;-74
2022/12/19 00:58:26;;;;;;;42.03;19.58;;;-1.60;99.90;;;;;;4937621;29;20035;-74
2022/12/19 01:00:51;;;;;;;43.55;20.33;;;-1.30;99.90;;;;;;4937623;29;20075;-74
2022/12/19 01:03:17;;;;;;;43.08;19.48;;;-1.20;99.90;;;;;;4920583;29;20032;-73
2022/12/19 01:05:42;;;;;;;41.58;19.45;;;-0.50;99.90;;;;;;4920122;29;20039;-74
2022/12/19 01:08:08;;;;;;;43.10;18.92;;;-0.60;99.90;;;;;;4922431;29;20123;-74
2022/12/19 01:10:34;;;;;;;41.50;18.25;;;-1.80;99.90;;;;;;4936088;29;20032;-74
2022/12/19 01:12:59;;;;;;;43.55;18.77;;;-1.30;99.90;;;;;;4937101;29;20106;-74
2022/12/19 01:15:25;;;;;;;43.75;18.20;;;-1.40;99.90;;;;;;4937179;29;20107;-74
2022/12/19 01:17:51;;;;;;;42.33;19.80;;;-1.80;99.90;;;;;;4936060;29;20058;-74
2022/12/19 01:20:19;;;;;;;39.00;18.00;;;-0.60;99.90;;;;;;4936111;29;20023;-74
2022/12/19 01:22:45;;;;;;;;;;;-1.80;99.90;;;;;;4937533;29;20019;-74
2022/12/19 01:25:12;;;;;;;38.90;17.58;;;-1.80;99.90;;;;;;4937279;29;19970;-74
2022/12/19 01:27:38;;;;;;;41.08;18.92;;;-1.10;99.90;;;;;;4937212;29;20091;-74
2022/12/19 01:30:05;;;;;;;38.38;18.20;;;-1.80;99.90;;;;;;4935874;29;20408;-74
2022/12/19 01:32:34;;;;;;;38.20;17.33;;;-1.80;99.90;;;;;;4935867;29;20031;-74
2022/12/19 01:34:59;;;;;;;;;;;-1.80;99.90;;;;;;4920981;29;20380;-74
2022/12/19 01:37:25;;;;;;;37.97;16.17;;;-1.80;99.90;;;;;;4935987;29;19910;-74
2022/12/19 01:39:51;;;;;;;38.15;17.27;;;-1.80;99.90;;;;;;4935424;29;20039;-74
2022/12/19 01:42:20;;;;;;;36.20;16.25;;;-1.90;99.90;;;;;;4935743;29;20024;-74
2022/12/19 01:45:06;;;;;;;43.78;17.88;;;-1.50;99.90;;;;;;4937910;29;20071;-74
2022/12/19 01:47:40;;;;;;;40.92;18.17;;;-1.70;99.90;;;;;;4939772;29;20027;-74
2022/12/19 01:50:12;;;;;;;37.83;17.50;;;-1.70;99.90;;;;;;4938077;29;20095;-74
2022/12/19 01:52:38;;;;;;;39.33;17.63;;;-1.30;99.90;;;;;;4936173;29;20032;-74
2022/12/19 01:55:04;;;;;;;32.83;16.33;;;-1.70;99.90;;;;;;4936173;29;20111;-74
2022/12/19 01:57:30;;;;;;;38.60;16.00;;;-1.70;99.90;;;;;;4937196;29;20032;-73
2022/12/19 01:59:58;;;;;;;35.78;16.02;;;-1.70;99.90;;;;;;4938339;29;20528;-73
2022/12/19 02:02:37;;;;;;;34.17;16.83;;;-0.70;99.90;;;;;;4939282;29;20358;-73
2022/12/19 02:05:04;;;;;;;40.58;18.20;;;-1.60;99.90;;;;;;4939160;29;20036;-73
2022/12/19 02:07:32;;;;;;;35.78;16.58;;;-1.70;99.90;;;;;;4940020;29;20091;-74
2022/12/19 02:09:58;;;;;;;32.65;15.55;;;-1.70;99.90;;;;;;4923546;29;20023;-74
2022/12/19 02:12:26;;;;;;;35.08;16.38;;;-1.70;99.90;;;;;;4940662;29;20028;-74
2022/12/19 02:14:53;;;;;;;27.80;11.45;;;-1.70;99.90;;;;;;4940553;29;20110;-74
2022/12/19 02:17:42;;;;;;;31.45;15.38;;;-1.50;99.90;;;;;;4940857;29;20039;-74
2022/12/19 02:20:34;;;;;;;38.25;16.17;;;-1.70;99.90;;;;;;4923660;29;20436;-74
2022/12/19 02:23:00;;;;;;;35.67;16.92;;;-1.70;99.90;;;;;;4935195;29;20036;-74
2022/12/19 02:25:52;;;;;;;35.53;16.33;;;-1.80;99.90;;;;;;4940265;29;20038;-74
2022/12/19 02:28:29;;;;;;;33.75;15.82;;;-1.70;99.90;;;;;;4940468;29;20063;-74
2022/12/19 02:30:58;;;;;;;31.52;15.73;;;-1.80;99.90;;;;;;4923291;29;20028;-74
2022/12/19 02:33:59;;;;;;;;;;;-1.80;99.90;;;;;;4923649;29;20409;-74
2022/12/19 02:36:34;;;;;;;35.92;15.60;;;-1.80;99.90;;;;;;4884040;29;19919;-74
2022/12/19 02:39:06;;;;;;;36.28;16.15;;;-1.70;99.90;;;;;;4934329;29;20065;-74
2022/12/19 02:41:55;;;;;;;34.63;15.43;;;-1.00;99.90;;;;;;4923148;29;20392;-74
2022/12/19 02:44:46;;;;;;;34.28;16.10;;;-1.80;99.90;;;;;;4940624;29;20024;-74
2022/12/19 02:47:13;;;;;;;33.85;16.70;;;-1.70;99.90;;;;;;4927280;29;20436;-74
2022/12/19 02:49:39;;;;;;;33.05;15.40;;;-1.60;99.90;;;;;;4925925;29;20031;-74
2022/12/19 02:52:10;;;;;;;35.15;14.93;;;-1.70;99.90;;;;;;4941071;29;20032;-74
2022/12/19 02:54:36;;;;;;;33.38;15.00;;;-1.40;99.90;;;;;;4922473;29;20030;-73
2022/12/19 02:57:13;;;;;;;34.50;16.50;;;-1.60;99.90;;;;;;4922518;29;20038;-74
2022/12/19 03:00:04;;;;;;;35.03;15.85;;;-1.70;99.90;;;;;;4923149;29;20118;-73
2022/12/19 03:03:08;;;;;;;33.17;16.13;;;-1.70;99.90;;;;;;4923017;29;20403;-73
2022/12/19 03:06:15;;;;;;;34.58;15.20;;;-1.70;99.90;;;;;;4923406;29;20032;-73
2022/12/19 03:09:03;;;;;;;32.17;14.52;;;-1.70;99.90;;;;;;4930204;29;20048;-73
2022/12/19 03:11:34;;;;;;;35.03;15.50;;;-1.70;99.90;;;;;;4937994;29;20036;-73
2022/12/19 03:14:07;;;;;;;36.63;15.20;;;-1.50;99.90;;;;;;4938653;29;20060;-73
2022/12/19 03:16:36;;;;;;;32.90;15.20;;;-1.60;99.90;;;;;;4939664;29;20476;-74
2022/12/19 03:19:06;;;;;;;36.72;15.82;;;-0.70;99.90;;;;;;4938551;29;20094;-74
2022/12/19 03:21:51;;;;;;;41.00;15.23;;;-1.50;99.90;;;;;;4939707;29;20034;-74
2022/12/19 03:24:17;;;;;;;32.78;14.38;;;-1.50;99.90;;;;;;4937921;29;20076;-74
2022/12/19 03:27:02;;;;;;;35.10;15.73;;;-1.40;99.90;;;;;;4939112;29;20035;-74
2022/12/19 03:29:33;;;;;;;31.20;14.85;;;-1.40;99.90;;;;;;4938152;29;20384;-74
2022/12/19 03:32:02;;;;;;;34.47;15.13;;;-1.40;99.90;;;;;;4939186;29;20479;-74
2022/12/19 03:34:33;;;;;;;35.67;16.50;;;0.20;99.90;;;;;;4937975;29;20063;-74
2022/12/19 03:37:02;;;;;;;34.72;15.70;;;-1.40;99.90;;;;;;4938653;29;20035;-74
2022/12/19 03:39:30;;;;;;;32.08;15.63;;;-1.30;99.90;;;;;;4937281;29;20088;-74
2022/12/19 03:44:42;;;;;;;36.70;17.00;;;-1.30;99.90;;;;;;4938916;29;20090;-73
2022/12/19 03:47:19;;;;;;;33.03;15.45;;;-1.30;99.90;;;;;;4937402;29;20035;-74
2022/12/19 03:49:46;;;;;;;32.53;15.57;;;-1.30;99.90;;;;;;4937515;29;20039;-74
2022/12/19 03:52:25;;;;;;;36.60;15.98;;;-1.30;99.90;;;;;;4937568;29;20051;-74
2022/12/19 03:55:03;;;;;;;41.80;16.60;;;-1.30;99.90;;;;;;4938612;29;20032;-74
2022/12/19 03:57:35;;;;;;;35.27;15.43;;;-1.00;99.90;;;;;;4937302;29;20063;-74
2022/12/19 04:00:05;;;;;;;35.85;15.35;;;-1.00;99.90;;;;;;4938765;29;20306;-74
2022/12/19 04:02:35;;;;;;;38.17;16.00;;;-1.30;99.90;;;;;;4938592;29;20543;-74
2022/12/19 04:05:09;;;;;;;36.45;15.85;;;-1.20;99.90;;;;;;4938428;29;20067;-73
2022/12/19 04:07:37;;;;;;;34.28;15.27;;;-1.20;99.90;;;;;;4937152;29;20083;-74
2022/12/19 04:10:10;;;;;;;33.53;15.93;;;-0.90;99.90;;;;;;4939081;29;20023;-74
2022/12/19 04:12:41;;;;;;;34.75;15.68;;;-1.20;99.90;;;;;;4938424;29;20083;-74
2022/12/19 04:15:08;;;;;;;34.22;15.65;;;-1.00;99.90;;;;;;4938296;29;20373;-74
2022/12/19 04:17:59;;;;;;;34.47;16.17;;;-1.20;99.90;;;;;;4906215;29;20390;-73
2022/12/19 04:20:27;;;;;;;36.28;15.50;;;-1.20;99.90;;;;;;4921399;29;20032;-73
2022/12/19 04:22:55;;;;;;;38.50;15.75;;;-1.20;99.90;;;;;;4937357;29;20094;-73
2022/12/19 04:25:48;;;;;;;38.85;16.30;;;-1.20;99.90;;;;;;4938190;29;20091;-74
2022/12/19 04:28:23;;;;;;;31.30;15.55;;;-1.20;99.90;;;;;;4921067;29;20119;-73
2022/12/19 04:30:50;;;;;;;35.85;18.13;;;-1.20;99.90;;;;;;4921241;29;20027;-73
2022/12/19 04:33:16;;;;;;;37.80;16.30;;;-1.20;99.90;;;;;;4937797;29;20469;-73
2022/12/19 04:35:41;;;;;;;36.75;17.10;;;-1.20;99.90;;;;;;4920500;29;20069;-73
2022/12/19 04:38:07;;;;;;;34.00;16.45;;;-1.20;99.90;;;;;;4937912;29;20040;-73
2022/12/19 04:40:34;;;;;;;34.75;16.23;;;-1.20;99.90;;;;;;4920675;29;20067;-73
2022/12/19 04:43:00;;;;;;;43.33;16.08;;;-0.60;99.90;;;;;;4937614;29;20040;-73
2022/12/19 04:45:26;;;;;;;36.75;16.40;;;-1.10;99.90;;;;;;4922862;29;20063;-74
2022/12/19 04:47:51;;;;;;;36.75;16.90;;;-1.30;99.90;;;;;;4923873;29;20096;-73
2022/12/19 04:50:17;;;;;;;35.85;17.27;;;-1.40;99.90;;;;;;4923136;29;20485;-74
2022/12/19 04:52:43;;;;;;;35.90;16.08;;;-1.40;99.90;;;;;;4938837;29;20387;-74
2022/12/19 04:55:08;;;;;;;38.63;17.80;;;-1.40;99.90;;;;;;4920708;29;20388;-73
2022/12/19 04:57:34;;;;;;;39.15;17.08;;;-1.50;99.90;;;;;;4921082;29;20094;-73
2022/12/19 05:00:02;;;;;;;38.63;17.58;;;-1.40;99.90;;;;;;4920399;29;20039;-73
2022/12/19 05:02:28;;;;;;;38.30;16.73;;;-0.30;99.90;;;;;;4937602;29;20071;-73
2022/12/19 05:04:54;;;;;;;37.15;16.65;;;-0.50;99.90;;;;;;4920395;29;20036;-73
2022/12/19 05:07:19;;;;;;;41.13;17.80;;;-1.50;99.90;;;;;;4920423;29;20126;-73
2022/12/19 05:09:45;;;;;;;38.42;18.33;;;-0.60;99.90;;;;;;4935728;29;20058;-73
2022/12/19 05:12:11;;;;;;;38.83;17.10;;;-1.40;99.90;;;;;;4937442;29;20058;-73
2022/12/19 05:14:37;;;;;;;37.47;17.13;;;-0.80;99.90;;;;;;4937216;29;20376;-74
2022/12/19 05:17:02;;;;;;;40.38;19.08;;;-1.50;99.90;;;;;;4937795;29;20035;-75
2022/12/19 05:19:28;;;;;;;38.90;17.73;;;-1.50;99.90;;;;;;4937213;29;20080;-73
2022/12/19 05:21:54;;;;;;;39.08;17.17;;;-1.50;99.90;;;;;;4937277;29;20210;-74
2022/12/19 05:24:20;;;;;;;39.55;18.27;;;-0.60;99.90;;;;;;4937766;29;20461;-74
2022/12/19 05:26:47;;;;;;;39.83;17.92;;;-0.70;99.90;;;;;;4937757;29;20032;-73
2022/12/19 05:29:13;;;;;;;44.50;19.40;;;-1.50;99.90;;;;;;4937199;29;20032;-73
2022/12/19 05:31:39;;;;;;;44.22;18.50;;;-1.50;99.90;;;;;;4936943;29;20031;-73
2022/12/19 05:34:04;;;;;;;48.05;19.48;;;-0.10;99.90;;;;;;4939534;29;20043;-74
2022/12/19 05:36:30;;;;;;;41.22;18.63;;;-1.50;99.90;;;;;;4941073;29;20040;-73
2022/12/19 05:38:56;;;;;;;42.47;19.50;;;-1.40;99.90;;;;;;4941026;29;20400;-72
2022/12/19 05:41:21;;;;;;;44.80;19.50;;;-0.90;99.90;;;;;;4940948;29;20127;-74
2022/12/19 05:43:52;;;;;;;44.45;19.35;;;-1.40;99.90;;;;;;4939809;29;20562;-73
2022/12/19 05:46:19;;;;;;;42.78;19.50;;;-1.40;99.90;;;;;;4939803;29;20511;-73
2022/12/19 05:48:45;;;;;;;49.60;21.42;;;-1.30;99.90;;;;;;4939279;29;20032;-73
2022/12/19 05:51:11;;;;;;;44.55;20.73;;;-1.50;99.90;;;;;;4940595;29;20027;-73
2022/12/19 05:53:38;;;;;;;44.22;20.42;;;-1.60;99.90;;;;;;4940546;29;20099;-73
2022/12/19 05:56:11;;;;;;;48.63;22.55;;;-1.60;99.90;;;;;;4940577;29;20038;-73
2022/12/19 05:58:38;;;;;;;50.85;21.98;;;-1.50;99.90;;;;;;4940545;29;20036;-73
2022/12/19 06:01:06;;;;;;;49.95;23.77;;;-0.90;99.90;;;;;;4939998;29;20027;-65
2022/12/19 06:03:32;;;;;;;52.45;23.63;;;-1.70;99.90;;;;;;4940216;29;20028;-70
2022/12/19 06:06:01;;;;;;;49.63;22.48;;;-1.70;99.90;;;;;;4940010;29;20118;-70
2022/12/19 06:08:27;;;;;;;50.85;21.83;;;-1.80;99.90;;;;;;4940248;29;20051;-70
2022/12/19 06:10:53;;;;;;;53.15;22.17;;;-0.40;99.90;;;;;;4939670;29;20373;-70
2022/12/19 06:13:18;;;;;;;51.33;23.70;;;-1.80;99.90;;;;;;4922858;29;20046;-70
2022/12/19 06:15:44;;;;;;;53.35;23.50;;;-1.80;99.90;;;;;;4939661;29;20035;-70
2022/12/19 06:18:09;;;;;;;50.10;22.58;;;-1.80;99.90;;;;;;4922924;29;20038;-72
2022/12/19 06:20:35;;;;;;;59.70;24.27;;;-1.80;99.90;;;;;;4940224;29;20038;-71
2022/12/19 06:23:01;;;;;;;51.33;22.58;;;-1.80;99.90;;;;;;4922939;29;20034;-71
2022/12/19 06:25:26;;;;;;;62.95;26.98;;;-1.50;99.90;;;;;;4922601;29;20032;-73
2022/12/19 06:27:52;;;;;;;51.90;23.75;;;-1.40;99.90;;;;;;4939477;29;20024;-72
2022/12/19 06:30:17;;;;;;;53.35;23.55;;;-1.30;99.90;;;;;;4939729;29;20468;-72
2022/12/19 06:32:43;;;;;;;53.97;24.30;;;-0.70;99.90;;;;;;4922157;29;20431;-72
2022/12/19 06:35:09;;;;;;;58.10;24.55;;;-1.20;99.90;;;;;;4922621;29;20031;-72
2022/12/19 06:37:35;;;;;;;54.20;23.35;;;-1.90;99.90;;;;;;4939995;29;20036;-72
2022/12/19 06:40:00;;;;;;;59.60;24.15;;;-0.50;99.90;;;;;;4922416;29;20032;-73
2022/12/19 06:42:26;;;;;;;60.30;24.23;;;-1.30;99.90;;;;;;4922421;29;20140;-72
2022/12/19 06:44:53;;;;;;;61.25;24.80;;;-1.80;99.90;;;;;;4921342;29;20055;-72
2022/12/19 06:47:20;;;;;;;65.72;24.90;;;-1.90;99.90;;;;;;4939432;29;20035;-72
2022/12/19 06:49:47;;;;;;;64.28;25.70;;;-1.90;99.90;;;;;;4938922;29;20031;-70
2022/12/19 06:52:13;;;;;;;60.20;23.75;;;-1.90;99.90;;;;;;4922384;29;20443;-71
2022/12/19 06:54:39;;;;;;;61.58;28.42;;;-1.90;99.90;;;;;;4939360;29;20042;-71
2022/12/19 06:57:05;;;;;;;62.75;24.38;;;-2.00;99.90;;;;;;4922641;29;20448;-71
2022/12/19 06:59:30;;;;;;;62.85;25.73;;;-2.00;99.90;;;;;;4938687;29;20111;-71
2022/12/19 07:02:16;;;;;;;53.35;24.85;;;-0.80;99.90;;;;;;4939093;29;20045;-72
2022/12/19 07:04:46;;;;;;;56.22;24.67;;;-2.00;99.90;;;;;;4939635;29;20107;-71
2022/12/19 07:07:12;;;;;;;60.17;24.02;;;-2.00;99.90;;;;;;4922471;29;20118;-71
2022/12/19 07:09:38;;;;;;;58.80;23.15;;;-1.90;99.90;;;;;;4936103;29;20054;-71
2022/12/19 07:12:04;;;;;;;56.47;24.15;;;-1.90;99.90;;;;;;4939076;29;20038;-70
2022/12/19 07:14:30;;;;;;;65.30;24.77;;;-2.00;99.90;;;;;;4938880;29;20384;-72
2022/12/19 07:16:59;;;;;;;57.35;22.65;;;-2.00;99.90;;;;;;4939822;29;20032;-72
2022/12/19 07:19:26;;;;;;;57.47;23.08;;;-1.70;99.90;;;;;;4941881;29;20027;-72
2022/12/19 07:21:51;;;;;;;54.80;22.20;;;-2.00;99.90;;;;;;4941312;29;20038;-71
2022/12/19 07:24:17;;;;;;;60.28;23.67;;;-2.00;99.90;;;;;;4940075;29;20053;-71
2022/12/19 07:26:43;;;;;;;54.60;22.27;;;-2.00;99.90;;;;;;4922078;29;20042;-72
2022/12/19 07:29:10;;;;;;;56.70;23.70;;;-2.00;99.90;;;;;;4938602;29;20074;-71
2022/12/19 07:31:36;;;;;;;58.55;22.48;;;-2.00;99.90;;;;;;4938533;29;20039;-72
2022/12/19 07:34:02;;;;;;;54.72;22.02;;;-2.10;99.90;;;;;;4937671;29;20028;-71
2022/12/19 07:36:27;;;;;;;50.72;22.08;;;-2.00;99.90;;;;;;4937479;29;20468;-71
2022/12/19 07:38:53;;;;;;;56.63;22.42;;;-2.00;99.90;;;;;;4937304;29;20036;-70
2022/12/19 07:41:19;;;;;;;56.70;23.48;;;-1.70;99.90;;;;;;4938789;29;20027;-70
2022/12/19 07:43:45;;;;;;;79.43;31.55;;;-2.00;99.90;;;;;;4938592;29;20035;-71
2022/12/19 07:46:10;;;;;;;49.63;20.42;;;-2.10;99.90;;;;;;4937411;29;20099;-71
2022/12/19 07:48:36;;;;;;;62.92;24.83;;;-2.00;99.90;;;;;;4936898;29;20103;-72
2022/12/19 07:51:03;;;;;;;48.22;20.20;;;-1.60;99.90;;;;;;4937008;29;20029;-71
2022/12/19 07:53:28;;;;;;;52.20;20.05;;;-2.00;99.90;;;;;;4937358;29;20031;-71
2022/12/19 07:55:54;;;;;;;55.00;20.83;;;-2.10;99.90;;;;;;4937254;29;20070;-71
2022/12/19 07:58:20;;;;;;;56.30;19.92;;;-1.70;99.90;;;;;;4938041;29;20028;-70
2022/12/19 08:00:56;;;;;;;53.90;20.95;;;-2.10;99.90;;;;;;4936582;29;20480;-71
2022/12/19 08:03:22;;;;;;;58.10;20.63;;;-2.00;99.90;;;;;;4937276;29;20032;-71
2022/12/19 08:05:48;;;;;;;49.78;20.42;;;-1.80;99.90;;;;;;4938077;29;20038;-71
2022/12/19 08:08:14;;;;;;;51.28;21.08;;;-2.00;99.90;;;;;;4936662;29;20052;-71
2022/12/19 08:10:40;;;;;;;52.95;21.55;;;-1.90;99.90;;;;;;4937571;29;20024;-71
2022/12/19 08:13:06;;;;;;;56.45;22.27;;;-2.00;99.90;;;;;;4936935;29;20071;-71
2022/12/19 08:15:32;;;;;;;55.58;23.75;;;-1.90;99.90;;;;;;4936929;29;20365;-71
2022/12/19 08:17:57;;;;;;;44.97;19.52;;;-1.90;99.90;;;;;;4938681;29;20042;-72
2022/12/19 08:20:23;;;;;;;53.28;21.13;;;-0.90;99.90;;;;;;4941180;29;20504;-73
2022/12/19 08:22:49;;;;;;;50.20;18.95;;;-1.90;99.90;;;;;;4940053;29;20039;-73
2022/12/19 08:25:14;;;;;;;50.60;20.25;;;-1.90;99.90;;;;;;4939229;29;20068;-74
2022/12/19 08:27:41;;;;;;;49.28;18.88;;;-1.80;99.90;;;;;;4939489;29;20032;-73
2022/12/19 08:30:08;;;;;;;51.97;19.08;;;-0.80;99.90;;;;;;4937924;29;20028;-73
2022/12/19 08:32:33;;;;;;;50.92;19.33;;;-1.80;99.90;;;;;;4937730;29;20024;-74
2022/12/19 08:34:59;;;;;;;46.03;19.05;;;-1.80;99.90;;;;;;4936307;29;20389;-74
2022/12/19 08:37:25;;;;;;;53.50;19.58;;;-1.70;99.90;;;;;;4938010;29;20091;-73
2022/12/19 08:39:50;;;;;;;48.88;19.92;;;-1.70;99.90;;;;;;4936222;29;20032;-73
2022/12/19 08:42:16;;;;;;;47.20;18.33;;;-1.70;99.90;;;;;;4937552;29;20034;-75
2022/12/19 08:44:42;;;;;;;45.30;19.00;;;-1.60;99.90;;;;;;4936522;29;20063;-73
2022/12/19 08:47:08;;;;;;;51.92;19.90;;;-1.70;99.90;;;;;;4936406;29;20027;-73
2022/12/19 08:49:34;;;;;;;53.05;19.52;;;-0.80;99.90;;;;;;4937717;29;20027;-73
2022/12/19 08:51:59;;;;;;;45.53;18.58;;;-1.70;99.90;;;;;;4937399;29;20066;-74
2022/12/19 08:54:26;;;;;;;45.28;18.13;;;-1.70;99.90;;;;;;4937260;29;20038;-74
2022/12/19 08:56:51;;;;;;;44.20;18.05;;;-1.70;99.90;;;;;;4936269;29;20027;-73
2022/12/19 08:59:17;;;;;;;49.80;19.38;;;-1.20;99.90;;;;;;4937310;29;20032;-74
2022/12/19 09:01:43;;;;;;;54.53;20.83;;;-1.70;99.90;;;;;;4936506;29;20023;-74
2022/12/19 09:04:08;;;;;;;59.00;20.10;;;-1.60;99.90;;;;;;4937523;29;20034;-73
2022/12/19 09:06:34;;;;;;;53.40;19.50;;;-1.60;99.90;;;;;;4937824;29;20415;-73
2022/12/19 09:09:00;;;;;;;45.83;20.42;;;-1.50;99.90;;;;;;4935628;29;20047;-73
2022/12/19 09:11:25;;;;;;;52.83;20.30;;;-1.70;99.90;;;;;;4936597;29;20031;-74
2022/12/19 09:13:55;;;;;;;49.72;19.67;;;-0.70;99.90;;;;;;4935984;29;20035;-74
2022/12/19 09:16:22;;;;;;;50.05;19.13;;;-1.60;99.90;;;;;;4935869;29;20497;-74
2022/12/19 09:18:53;;;;;;;50.75;20.38;;;-1.60;99.90;;;;;;4936567;29;20038;-74
2022/12/19 09:21:21;;;;;;;50.17;19.30;;;-1.60;99.90;;;;;;4936109;29;20024;-73
2022/12/19 09:23:53;;;;;;;51.22;20.55;;;-1.60;99.90;;;;;;4937278;29;20053;-74
2022/12/19 09:26:20;;;;;;;55.83;20.15;;;-1.50;99.90;;;;;;4936904;29;20036;-73
2022/12/19 09:28:46;;;;;;;49.22;19.50;;;-1.40;99.90;;;;;;4937466;29;20067;-74
2022/12/19 09:31:18;;;;;;;48.58;18.60;;;-1.40;99.90;;;;;;4935736;29;20376;-74
2022/12/19 09:33:45;;;;;;;45.47;19.35;;;-1.40;99.90;;;;;;4935493;29;20031;-73
2022/12/19 09:36:14;;;;;;;46.88;20.35;;;-1.40;99.90;;;;;;4935314;29;20032;-72
2022/12/19 09:38:40;;;;;;;48.60;19.42;;;-1.30;99.90;;;;;;4936060;29;20040;-73
2022/12/19 09:41:22;;;;;;;46.08;18.55;;;-1.20;99.90;;;;;;4936927;29;20031;-73
2022/12/19 09:44:21;;;;;;;46.20;18.67;;;-1.30;99.90;;;;;;4936791;29;20027;-73
2022/12/19 09:46:46;;;;;;;51.58;20.27;;;-1.20;99.90;;;;;;4937267;29;20106;-72
2022/12/19 09:49:15;;;;;;;44.58;19.10;;;-1.30;99.90;;;;;;4935466;29;20510;-74
2022/12/19 09:52:16;;;;;;;53.47;19.77;;;-0.20;99.90;;;;;;4936069;29;20115;-73
2022/12/19 09:55:00;;;;;;;47.42;18.98;;;-1.20;99.90;;;;;;4933734;29;20455;-74
2022/12/19 09:57:45;;;;;;;43.95;17.48;;;-1.10;99.90;;;;;;4936251;29;20036;-73
2022/12/19 10:00:14;;;;;;;49.97;18.27;;;-1.10;99.90;;;;;;4936925;29;20035;-73
2022/12/19 10:02:46;;;;;;;49.55;20.83;;;-1.10;99.90;;;;;;4935486;29;20087;-74
2022/12/19 10:05:26;;;;;;;44.45;18.85;;;-1.10;99.90;;;;;;4937099;29;20031;-73
2022/12/19 10:07:52;;;;;;;51.85;18.80;;;-1.10;99.90;;;;;;4936753;29;20528;-74
2022/12/19 10:10:46;;;;;;;55.00;20.50;;;-1.10;99.90;;;;;;4936758;29;20469;-73
2022/12/19 10:13:58;;;;;;;52.30;24.27;;;-1.20;99.90;;;;;;4936755;29;20020;-74
2022/12/19 10:16:42;;;;;;;50.90;19.80;;;-1.10;99.90;;;;;;4936138;29;20042;-73
2022/12/19 10:19:10;;;;;;;47.50;18.08;;;-1.10;99.90;;;;;;4920083;29;20032;-73
2022/12/19 10:21:41;;;;;;;42.38;17.20;;;-1.00;99.90;;;;;;4939337;29;20024;-73
2022/12/19 10:24:36;;;;;;;50.33;20.63;;;-1.00;99.90;;;;;;4940498;29;20035;-73
2022/12/19 10:27:19;;;;;;;47.88;18.98;;;-1.00;99.90;;;;;;4923746;29;20044;-74
2022/12/19 10:29:51;;;;;;;46.00;19.92;;;-0.90;99.90;;;;;;4940477;29;20035;-74
2022/12/19 10:32:41;;;;;;;50.83;19.88;;;-0.80;99.90;;;;;;4923355;29;20027;-73
2022/12/19 10:35:17;;;;;;;55.10;20.10;;;-0.80;99.90;;;;;;4940220;29;20067;-73
2022/12/19 10:38:08;;;;;;;50.22;19.75;;;-0.70;99.90;;;;;;4940511;29;20032;-73
2022/12/19 10:40:44;;;;;;;47.38;19.08;;;-0.80;99.90;;;;;;4939825;29;20383;-73
2022/12/19 10:43:39;;;;;;;50.50;19.35;;;-0.70;99.90;;;;;;4939380;29;20027;-73
2022/12/19 10:46:18;;;;;;;50.35;19.58;;;-0.70;99.90;;;;;;4922151;29;20031;-73
2022/12/19 10:48:44;;;;;;;51.47;19.63;;;-0.70;99.90;;;;;;4939355;29;20032;-73
2022/12/19 10:51:21;;;;;;;51.95;19.58;;;-0.10;99.90;;;;;;4939220;29;20034;-75
2022/12/19 10:53:57;;;;;;;52.00;21.02;;;-0.60;99.90;;;;;;4938852;29;20030;-73
2022/12/19 10:56:27;;;;;;;57.03;20.35;;;-0.80;99.90;;;;;;4939006;29;20028;-74
2022/12/19 10:58:58;;;;;;;50.63;20.52;;;-0.80;99.90;;;;;;4922897;29;20028;-72
2022/12/19 11:01:33;;;;;;;51.28;19.25;;;-0.80;99.90;;;;;;4939283;29;20023;-73
2022/12/19 11:04:13;;;;;;;58.90;22.13;;;-0.70;99.90;;;;;;4938842;29;20050;-73
2022/12/19 11:06:42;;;;;;;55.78;20.85;;;-0.70;99.90;;;;;;4938875;29;20074;-73
2022/12/19 11:09:29;;;;;;;51.58;19.45;;;-0.60;99.90;;;;;;4931927;29;20374;-73
2022/12/19 11:12:06;;;;;;;58.08;20.85;;;-0.70;99.90;;;;;;4938513;29;20042;-73
2022/12/19 11:14:32;;;;;;;50.35;19.38;;;-0.70;99.90;;;;;;4938676;29;20112;-73
2022/12/19 11:16:59;;;;;;;54.53;19.95;;;0.50;99.90;;;;;;4938362;29;20043;-73
2022/12/19 11:19:37;;;;;;;53.47;20.27;;;-0.60;99.90;;;;;;4937543;29;20042;-73
2022/12/19 11:22:06;;;;;;;54.60;21.38;;;-0.10;99.90;;;;;;4937397;29;20024;-73
2022/12/19 11:24:52;;;;;;;52.47;21.23;;;-0.60;99.90;;;;;;4937410;29;20036;-73
2022/12/19 11:27:39;;;;;;;55.08;21.23;;;-0.60;99.90;;;;;;4937478;29;20031;-73
2022/12/19 11:30:14;;;;;;;55.50;20.42;;;-0.60;99.90;;;;;;4937459;29;20362;-73
2022/12/19 11:32:45;;;;;;;51.78;21.67;;;-0.60;99.90;;;;;;4938530;29;20028;-73
2022/12/19 11:35:17;;;;;;;49.38;20.02;;;-0.60;99.90;;;;;;4937297;29;20078;-73
2022/12/19 11:37:56;;;;;;;56.72;21.25;;;-0.60;99.90;;;;;;4938858;29;20038;-73
2022/12/19 11:40:27;;;;;;;;;;;-0.60;99.90;;;;;;4938402;29;20038;-73
2022/12/19 11:43:03;;;;;;;49.90;18.85;;;-0.60;99.90;;;;;;4938951;29;19907;-73
2022/12/19 11:45:53;;;;;;;47.70;19.67;;;-0.60;99.90;;;;;;4938503;29;20067;-73
2022/12/19 11:48:43;;;;;;;52.60;20.52;;;-0.70;99.90;;;;;;4943160;29;20028;-73
2022/12/19 11:51:14;;;;;;;52.85;19.45;;;-0.70;99.90;;;;;;4941841;29;20043;-73
2022/12/19 11:53:46;;;;;;;50.97;21.42;;;-0.70;99.90;;;;;;4941608;29;20028;-73
2022/12/19 11:56:15;;;;;;;55.42;19.60;;;-0.70;99.90;;;;;;4939699;29;20127;-74
2022/12/19 11:58:47;;;;;;;56.25;21.45;;;-0.70;99.90;;;;;;4938262;29;20476;-73
2022/12/19 12:01:37;;;;;;;58.33;29.02;;;-0.60;99.90;;;;;;4937742;29;20036;-73
2022/12/19 12:04:24;;;;;;;54.70;19.85;;;-0.60;99.90;;;;;;4937879;29;20377;-73
2022/12/19 12:06:53;;;;;;;49.30;19.55;;;-0.60;99.90;;;;;;4937454;29;20063;-73
2022/12/19 12:09:29;;;;;;;;;;;-0.40;99.90;;;;;;4937534;29;20139;-73
2022/12/19 12:12:17;;;;;;;51.00;19.42;;;-0.60;99.90;;;;;;4937943;29;20009;-72
2022/12/19 12:14:59;;;;;;;55.33;21.52;;;-0.50;99.90;;;;;;4937196;29;20080;-72
2022/12/19 12:17:58;;;;;;;48.95;19.35;;;-0.50;99.90;;;;;;4937097;29;20035;-72
2022/12/19 12:20:53;;;;;;;46.85;20.58;;;-0.50;99.90;;;;;;4936926;29;20082;-73
2022/12/19 12:23:37;;;;;;;48.33;20.30;;;-0.40;99.90;;;;;;4935342;29;20110;-74
2022/12/19 12:26:14;;;;;;;54.00;20.60;;;-0.40;99.90;;;;;;4937012;29;20027;-74
2022/12/19 12:29:00;;;;;;;45.88;18.92;;;-0.30;99.90;;;;;;4936998;29;20063;-74
2022/12/19 12:32:00;;;;;;;48.40;19.15;;;-0.40;99.90;;;;;;4936782;29;20030;-74
2022/12/19 12:35:13;;;;;;;52.58;20.50;;;-0.40;99.90;;;;;;4937300;29;20381;-74
2022/12/19 12:38:11;;;;;;;49.35;19.33;;;-0.30;99.90;;;;;;4933535;29;20047;-74
2022/12/19 12:41:01;;;;;;;49.17;19.80;;;-0.30;99.90;;;;;;4939131;29;20027;-73
2022/12/19 12:43:54;;;;;;;50.22;20.63;;;-0.20;99.90;;;;;;4937817;29;20028;-74
2022/12/19 12:46:25;;;;;;;43.35;18.77;;;-0.30;99.90;;;;;;4937942;29;20031;-73
2022/12/19 12:48:59;;;;;;;52.50;20.63;;;-0.30;99.90;;;;;;4936976;29;20028;-73
2022/12/19 12:51:26;;;;;;;50.25;19.83;;;-0.30;99.90;;;;;;4936457;29;20071;-72
2022/12/19 12:53:59;;;;;;;45.33;18.15;;;-0.30;99.90;;;;;;4938157;29;20066;-73